Aviation Digital Data Service (ADDS)

Output produced by METARs form (0144 UTC 21 September 2018)
found at http://aviationweather.gov/metar/data/
 
METAR text: KSBS 210135Z AUTO 34007KT 10SM CLR 16/M09 A3017 RMK AO1 T01591095
Conditions at: KSBS (STEAMBOAT SPRING, CO, US) observed 0135 UTC 21 September 2018
Temperature: 15.9°C (61°F)
Dewpoint: -9.5°C (15°F) [RH = 16%]
Pressure (altimeter): 30.17 inches Hg (1021.8 mb)
Winds: from the NNW (340 degrees) at 8 MPH (7 knots; 3.6 m/s)
Visibility: 10 or more miles (16+ km)
Ceiling: at least 12,000 feet AGL
Clouds: sky clear below 12,000 feet AGL
Weather: automated observation with no human augmentation;
there may or may not be significant weather present at this time

METAR text: KSBS 210115Z AUTO 29007KT 10SM CLR 17/M09 A3016 RMK AO1 T01691089
Conditions at: KSBS (STEAMBOAT SPRING, CO, US) observed 0115 UTC 21 September 2018
Temperature: 16.9°C (62°F)
Dewpoint: -8.9°C (16°F) [RH = 16%]
Pressure (altimeter): 30.16 inches Hg (1021.4 mb)
Winds: from the WNW (290 degrees) at 8 MPH (7 knots; 3.6 m/s)
Visibility: 10 or more miles (16+ km)
Ceiling: at least 12,000 feet AGL
Clouds: sky clear below 12,000 feet AGL
Weather: automated observation with no human augmentation;
there may or may not be significant weather present at this time

METAR text: KSBS 210055Z AUTO 29008KT 10SM CLR 18/M08 A3015 RMK AO1 T01821085
Conditions at: KSBS (STEAMBOAT SPRING, CO, US) observed 0055 UTC 21 September 2018
Temperature: 18.2°C (65°F)
Dewpoint: -8.5°C (17°F) [RH = 15%]
Pressure (altimeter): 30.15 inches Hg (1021.1 mb)
Winds: from the WNW (290 degrees) at 9 MPH (8 knots; 4.1 m/s)
Visibility: 10 or more miles (16+ km)
Ceiling: at least 12,000 feet AGL
Clouds: sky clear below 12,000 feet AGL
Weather: automated observation with no human augmentation;
there may or may not be significant weather present at this time